sensor_id;sensor_type;location;lat;lon;timestamp;pressure;altitude;pressure_sealevel;temperature;humidity
51460;BME280;37534;39.772;2.718;2024-03-08T00:02:16;100485.47;;;15.04;100.00
51460;BME280;37534;39.772;2.718;2024-03-08T00:04:42;100483.59;;;14.88;100.00
51460;BME280;37534;39.772;2.718;2024-03-08T00:07:07;100471.63;;;14.86;100.00
51460;BME280;37534;39.772;2.718;2024-03-08T00:09:33;100479.47;;;14.84;100.00
51460;BME280;37534;39.772;2.718;2024-03-08T00:11:59;100484.03;;;14.79;100.00
51460;BME280;37534;39.772;2.718;2024-03-08T00:14:24;100492.22;;;14.89;100.00
51460;BME280;37534;39.772;2.718;2024-03-08T00:16:50;100498.06;;;14.94;100.00
51460;BME280;37534;39.772;2.718;2024-03-08T00:19:19;100474.47;;;14.98;100.00
51460;BME280;37534;39.772;2.718;2024-03-08T00:21:45;100479.72;;;14.97;100.00
51460;BME280;37534;39.772;2.718;2024-03-08T00:24:10;100469.41;;;14.95;100.00
51460;BME280;37534;39.772;2.718;2024-03-08T00:26:37;100488.00;;;15.05;100.00
51460;BME280;37534;39.772;2.718;2024-03-08T00:29:03;100477.81;;;15.00;100.00
51460;BME280;37534;39.772;2.718;2024-03-08T00:31:29;100473.56;;;14.99;100.00
51460;BME280;37534;39.772;2.718;2024-03-08T00:33:56;100480.41;;;15.00;100.00
51460;BME280;37534;39.772;2.718;2024-03-08T00:36:22;100465.06;;;14.96;100.00
51460;BME280;37534;39.772;2.718;2024-03-08T00:38:48;100488.06;;;15.04;100.00
51460;BME280;37534;39.772;2.718;2024-03-08T00:41:14;100500.38;;;15.00;100.00
51460;BME280;37534;39.772;2.718;2024-03-08T00:43:39;100504.16;;;15.12;100.00
51460;BME280;37534;39.772;2.718;2024-03-08T00:46:05;100531.03;;;15.11;100.00
51460;BME280;37534;39.772;2.718;2024-03-08T00:48:31;100529.97;;;15.15;100.00
51460;BME280;37534;39.772;2.718;2024-03-08T00:50:56;100513.28;;;15.01;100.00
51460;BME280;37534;39.772;2.718;2024-03-08T00:53:22;100530.13;;;15.12;100.00
51460;BME280;37534;39.772;2.718;2024-03-08T00:55:48;100501.84;;;15.06;100.00
51460;BME280;37534;39.772;2.718;2024-03-08T00:58:14;100492.91;;;15.11;100.00
51460;BME280;37534;39.772;2.718;2024-03-08T01:00:40;100476.63;;;15.08;100.00
51460;BME280;37534;39.772;2.718;2024-03-08T01:03:05;100481.81;;;15.08;100.00
51460;BME280;37534;39.772;2.718;2024-03-08T01:05:32;100467.28;;;15.04;100.00
51460;BME280;37534;39.772;2.718;2024-03-08T01:07:58;100427.38;;;15.05;100.00
51460;BME280;37534;39.772;2.718;2024-03-08T01:10:23;100452.31;;;15.09;100.00
51460;BME280;37534;39.772;2.718;2024-03-08T01:12:49;100445.06;;;15.15;100.00
51460;BME280;37534;39.772;2.718;2024-03-08T01:15:15;100459.19;;;15.27;100.00
51460;BME280;37534;39.772;2.718;2024-03-08T01:17:41;100449.81;;;15.25;100.00
51460;BME280;37534;39.772;2.718;2024-03-08T01:20:07;100411.59;;;15.27;100.00
51460;BME280;37534;39.772;2.718;2024-03-08T01:22:36;100373.44;;;15.27;100.00
51460;BME280;37534;39.772;2.718;2024-03-08T01:25:01;100389.03;;;15.27;100.00
51460;BME280;37534;39.772;2.718;2024-03-08T01:27:30;100396.06;;;15.25;100.00
51460;BME280;37534;39.772;2.718;2024-03-08T01:29:55;100382.53;;;15.18;100.00
51460;BME280;37534;39.772;2.718;2024-03-08T01:32:21;100376.50;;;15.18;100.00
51460;BME280;37534;39.772;2.718;2024-03-08T01:34:48;100404.78;;;15.24;100.00
51460;BME280;37534;39.772;2.718;2024-03-08T01:37:13;100386.84;;;15.19;100.00
51460;BME280;37534;39.772;2.718;2024-03-08T01:39:39;100405.72;;;15.23;100.00
51460;BME280;37534;39.772;2.718;2024-03-08T01:42:05;100400.59;;;15.21;100.00
51460;BME280;37534;39.772;2.718;2024-03-08T01:44:31;100393.53;;;15.24;100.00
51460;BME280;37534;39.772;2.718;2024-03-08T01:46:56;100386.00;;;15.19;100.00
51460;BME280;37534;39.772;2.718;2024-03-08T01:49:22;100375.44;;;15.22;100.00
51460;BME280;37534;39.772;2.718;2024-03-08T01:51:50;100367.03;;;15.17;100.00
51460;BME280;37534;39.772;2.718;2024-03-08T01:54:18;100360.00;;;15.19;100.00
51460;BME280;37534;39.772;2.718;2024-03-08T01:56:45;100340.13;;;15.18;100.00
51460;BME280;37534;39.772;2.718;2024-03-08T01:59:12;100346.09;;;15.20;100.00
51460;BME280;37534;39.772;2.718;2024-03-08T02:01:38;100358.31;;;15.18;100.00
51460;BME280;37534;39.772;2.718;2024-03-08T02:04:03;100341.34;;;15.28;100.00
51460;BME280;37534;39.772;2.718;2024-03-08T02:06:32;100338.75;;;15.28;100.00
51460;BME280;37534;39.772;2.718;2024-03-08T02:08:58;100342.09;;;15.30;100.00
51460;BME280;37534;39.772;2.718;2024-03-08T02:11:23;100343.19;;;15.26;100.00
51460;BME280;37534;39.772;2.718;2024-03-08T02:13:49;100354.16;;;15.31;100.00
51460;BME280;37534;39.772;2.718;2024-03-08T02:16:21;100334.38;;;15.29;100.00
51460;BME280;37534;39.772;2.718;2024-03-08T02:18:46;100342.38;;;15.42;100.00
51460;BME280;37534;39.772;2.718;2024-03-08T02:21:12;100347.81;;;15.37;100.00
51460;BME280;37534;39.772;2.718;2024-03-08T02:23:39;100359.22;;;15.34;100.00
51460;BME280;37534;39.772;2.718;2024-03-08T02:26:05;100363.03;;;15.27;100.00
51460;BME280;37534;39.772;2.718;2024-03-08T02:28:33;100338.66;;;15.30;100.00
51460;BME280;37534;39.772;2.718;2024-03-08T02:30:59;100332.00;;;15.24;100.00
51460;BME280;37534;39.772;2.718;2024-03-08T02:33:26;100336.78;;;15.16;100.00
51460;BME280;37534;39.772;2.718;2024-03-08T02:35:52;100340.47;;;15.12;100.00
51460;BME280;37534;39.772;2.718;2024-03-08T02:38:19;100349.91;;;15.13;100.00
51460;BME280;37534;39.772;2.718;2024-03-08T02:40:46;100326.53;;;15.13;100.00
51460;BME280;37534;39.772;2.718;2024-03-08T02:43:13;100312.16;;;15.06;100.00
51460;BME280;37534;39.772;2.718;2024-03-08T02:45:40;100315.22;;;15.14;100.00
51460;BME280;37534;39.772;2.718;2024-03-08T02:48:07;100313.00;;;15.06;100.00
51460;BME280;37534;39.772;2.718;2024-03-08T02:50:33;100313.00;;;15.06;100.00
51460;BME280;37534;39.772;2.718;2024-03-08T02:53:00;100311.53;;;15.18;100.00
51460;BME280;37534;39.772;2.718;2024-03-08T02:55:26;100307.94;;;15.20;100.00
51460;BME280;37534;39.772;2.718;2024-03-08T02:57:52;100295.94;;;15.18;100.00
51460;BME280;37534;39.772;2.718;2024-03-08T03:00:20;100298.31;;;15.23;100.00
51460;BME280;37534;39.772;2.718;2024-03-08T03:02:46;100281.88;;;15.22;100.00
51460;BME280;37534;39.772;2.718;2024-03-08T03:05:12;100295.03;;;15.19;100.00
51460;BME280;37534;39.772;2.718;2024-03-08T03:07:38;100280.78;;;15.10;100.00
51460;BME280;37534;39.772;2.718;2024-03-08T03:10:04;100276.59;;;15.24;100.00
51460;BME280;37534;39.772;2.718;2024-03-08T03:12:31;100241.97;;;15.23;100.00
51460;BME280;37534;39.772;2.718;2024-03-08T03:14:57;100222.59;;;15.13;100.00
51460;BME280;37534;39.772;2.718;2024-03-08T03:17:23;100236.78;;;15.23;100.00
51460;BME280;37534;39.772;2.718;2024-03-08T03:19:50;100226.38;;;15.23;100.00
51460;BME280;37534;39.772;2.718;2024-03-08T03:22:17;100246.44;;;15.21;100.00
51460;BME280;37534;39.772;2.718;2024-03-08T03:24:44;100266.75;;;15.13;100.00
51460;BME280;37534;39.772;2.718;2024-03-08T03:27:09;100263.25;;;15.14;100.00
51460;BME280;37534;39.772;2.718;2024-03-08T03:29:41;100277.63;;;15.21;100.00
51460;BME280;37534;39.772;2.718;2024-03-08T03:32:11;100264.63;;;15.21;100.00
51460;BME280;37534;39.772;2.718;2024-03-08T03:34:38;100264.88;;;15.32;100.00
51460;BME280;37534;39.772;2.718;2024-03-08T03:37:04;100265.63;;;15.34;100.00
51460;BME280;37534;39.772;2.718;2024-03-08T03:39:30;100279.34;;;15.20;100.00
51460;BME280;37534;39.772;2.718;2024-03-08T03:42:16;100285.56;;;15.18;100.00
51460;BME280;37534;39.772;2.718;2024-03-08T03:44:45;100301.47;;;15.12;100.00
51460;BME280;37534;39.772;2.718;2024-03-08T03:47:10;100289.31;;;15.12;100.00
51460;BME280;37534;39.772;2.718;2024-03-08T03:49:36;100297.94;;;15.13;100.00
51460;BME280;37534;39.772;2.718;2024-03-08T03:52:02;100309.84;;;15.17;100.00
51460;BME280;37534;39.772;2.718;2024-03-08T03:54:30;100313.00;;;15.06;100.00
51460;BME280;37534;39.772;2.718;2024-03-08T03:56:56;100321.03;;;15.01;100.00
51460;BME280;37534;39.772;2.718;2024-03-08T03:59:21;100304.84;;;14.79;100.00
51460;BME280;37534;39.772;2.718;2024-03-08T04:01:47;100321.34;;;14.78;100.00
51460;BME280;37534;39.772;2.718;2024-03-08T04:04:15;100330.81;;;14.79;100.00
51460;BME280;37534;39.772;2.718;2024-03-08T04:06:41;100324.25;;;14.72;100.00
51460;BME280;37534;39.772;2.718;2024-03-08T04:09:07;100333.88;;;14.87;100.00
51460;BME280;37534;39.772;2.718;2024-03-08T04:11:33;100326.31;;;14.82;100.00
51460;BME280;37534;39.772;2.718;2024-03-08T04:13:58;100341.44;;;14.92;100.00
51460;BME280;37534;39.772;2.718;2024-03-08T04:16:24;100348.53;;;14.88;100.00
51460;BME280;37534;39.772;2.718;2024-03-08T04:18:51;100354.66;;;14.87;100.00
51460;BME280;37534;39.772;2.718;2024-03-08T04:21:17;100345.81;;;14.91;100.00
51460;BME280;37534;39.772;2.718;2024-03-08T04:23:45;100365.44;;;14.97;100.00
51460;BME280;37534;39.772;2.718;2024-03-08T04:26:11;100357.88;;;14.92;100.00
51460;BME280;37534;39.772;2.718;2024-03-08T04:28:36;100356.59;;;14.83;100.00
51460;BME280;37534;39.772;2.718;2024-03-08T04:31:03;100359.38;;;14.79;100.00
51460;BME280;37534;39.772;2.718;2024-03-08T04:33:29;100373.13;;;14.81;100.00
51460;BME280;37534;39.772;2.718;2024-03-08T04:35:54;100377.72;;;14.76;100.00
51460;BME280;37534;39.772;2.718;2024-03-08T04:38:20;100388.41;;;14.70;100.00
51460;BME280;37534;39.772;2.718;2024-03-08T04:40:45;100381.00;;;14.43;100.00
51460;BME280;37534;39.772;2.718;2024-03-08T04:43:11;100373.72;;;14.13;100.00
51460;BME280;37534;39.772;2.718;2024-03-08T04:45:36;100379.75;;;13.95;100.00
51460;BME280;37534;39.772;2.718;2024-03-08T04:48:02;100384.72;;;13.80;100.00
51460;BME280;37534;39.772;2.718;2024-03-08T04:50:28;100376.00;;;13.62;100.00
51460;BME280;37534;39.772;2.718;2024-03-08T04:52:56;100397.91;;;13.55;100.00
51460;BME280;37534;39.772;2.718;2024-03-08T04:55:21;100395.53;;;13.50;100.00
51460;BME280;37534;39.772;2.718;2024-03-08T04:57:48;100386.47;;;13.61;100.00
51460;BME280;37534;39.772;2.718;2024-03-08T05:00:14;100403.25;;;13.71;100.00
51460;BME280;37534;39.772;2.718;2024-03-08T05:02:41;100386.69;;;13.75;100.00
51460;BME280;37534;39.772;2.718;2024-03-08T05:05:07;100384.34;;;13.69;100.00
51460;BME280;37534;39.772;2.718;2024-03-08T05:07:34;100378.53;;;13.64;100.00
51460;BME280;37534;39.772;2.718;2024-03-08T05:10:00;100373.81;;;13.53;100.00
51460;BME280;37534;39.772;2.718;2024-03-08T05:12:27;100352.13;;;13.56;100.00
51460;BME280;37534;39.772;2.718;2024-03-08T05:14:53;100327.09;;;13.55;100.00
51460;BME280;37534;39.772;2.718;2024-03-08T05:17:19;100294.81;;;13.62;100.00
51460;BME280;37534;39.772;2.718;2024-03-08T05:19:44;100253.47;;;13.59;100.00
51460;BME280;37534;39.772;2.718;2024-03-08T05:22:10;100269.81;;;13.61;100.00
51460;BME280;37534;39.772;2.718;2024-03-08T05:24:36;100275.47;;;13.69;100.00
51460;BME280;37534;39.772;2.718;2024-03-08T05:27:02;100268.06;;;13.61;100.00
51460;BME280;37534;39.772;2.718;2024-03-08T05:29:29;100306.09;;;13.61;100.00
51460;BME280;37534;39.772;2.718;2024-03-08T05:31:55;100317.06;;;13.66;100.00
51460;BME280;37534;39.772;2.718;2024-03-08T05:34:22;100331.25;;;13.78;100.00
51460;BME280;37534;39.772;2.718;2024-03-08T05:36:48;100307.97;;;13.76;100.00
51460;BME280;37534;39.772;2.718;2024-03-08T05:39:16;100335.19;;;13.86;100.00
51460;BME280;37534;39.772;2.718;2024-03-08T05:41:43;100324.59;;;13.72;100.00
51460;BME280;37534;39.772;2.718;2024-03-08T05:44:11;100325.00;;;13.82;100.00
51460;BME280;37534;39.772;2.718;2024-03-08T05:46:38;100315.75;;;13.76;100.00
51460;BME280;37534;39.772;2.718;2024-03-08T05:49:05;100316.94;;;13.69;100.00
51460;BME280;37534;39.772;2.718;2024-03-08T05:51:35;100322.84;;;13.73;100.00
51460;BME280;37534;39.772;2.718;2024-03-08T05:54:05;100336.03;;;13.68;100.00
51460;BME280;37534;39.772;2.718;2024-03-08T05:56:34;100366.75;;;13.57;100.00
51460;BME280;37534;39.772;2.718;2024-03-08T05:59:01;100357.56;;;13.49;100.00
51460;BME280;37534;39.772;2.718;2024-03-08T06:01:28;100360.53;;;13.61;100.00
51460;BME280;37534;39.772;2.718;2024-03-08T06:03:54;100358.47;;;13.48;100.00
51460;BME280;37534;39.772;2.718;2024-03-08T06:06:23;100364.44;;;13.50;100.00
51460;BME280;37534;39.772;2.718;2024-03-08T06:08:50;100369.47;;;13.54;100.00
51460;BME280;37534;39.772;2.718;2024-03-08T06:11:16;100369.03;;;13.64;100.00
51460;BME280;37534;39.772;2.718;2024-03-08T06:13:46;100353.78;;;13.57;100.00
51460;BME280;37534;39.772;2.718;2024-03-08T06:16:12;100374.53;;;13.57;100.00
51460;BME280;37534;39.772;2.718;2024-03-08T06:18:38;100361.06;;;13.48;100.00
51460;BME280;37534;39.772;2.718;2024-03-08T06:21:05;100378.63;;;13.42;100.00
51460;BME280;37534;39.772;2.718;2024-03-08T06:23:34;100357.63;;;13.27;100.00
51460;BME280;37534;39.772;2.718;2024-03-08T06:26:04;100379.31;;;13.25;100.00
51460;BME280;37534;39.772;2.718;2024-03-08T06:28:30;100385.38;;;13.03;100.00
51460;BME280;37534;39.772;2.718;2024-03-08T06:30:58;100377.28;;;13.11;100.00
51460;BME280;37534;39.772;2.718;2024-03-08T06:33:23;100376.31;;;12.93;100.00
51460;BME280;37534;39.772;2.718;2024-03-08T06:35:52;100381.09;;;12.82;100.00
51460;BME280;37534;39.772;2.718;2024-03-08T06:38:17;100381.09;;;12.82;100.00
51460;BME280;37534;39.772;2.718;2024-03-08T06:40:43;100384.56;;;12.81;100.00
51460;BME280;37534;39.772;2.718;2024-03-08T06:43:09;100381.09;;;12.82;100.00
51460;BME280;37534;39.772;2.718;2024-03-08T06:45:36;100385.22;;;12.65;100.00
51460;BME280;37534;39.772;2.718;2024-03-08T06:48:03;100381.75;;;12.65;100.00
51460;BME280;37534;39.772;2.718;2024-03-08T06:50:29;100374.19;;;12.60;100.00
51460;BME280;37534;39.772;2.718;2024-03-08T06:52:55;100392.78;;;12.70;100.00
51460;BME280;37534;39.772;2.718;2024-03-08T06:55:20;100382.72;;;12.62;100.00
51460;BME280;37534;39.772;2.718;2024-03-08T06:57:46;100375.75;;;12.64;100.00
51460;BME280;37534;39.772;2.718;2024-03-08T07:00:12;100364.50;;;12.65;100.00
51460;BME280;37534;39.772;2.718;2024-03-08T07:02:46;100361.13;;;12.63;100.00
51460;BME280;37534;39.772;2.718;2024-03-08T07:05:11;100345.94;;;12.54;100.00
51460;BME280;37534;39.772;2.718;2024-03-08T07:07:37;100354.25;;;12.62;100.00
51460;BME280;37534;39.772;2.718;2024-03-08T07:10:03;100381.84;;;12.63;100.00
51460;BME280;37534;39.772;2.718;2024-03-08T07:12:29;100403.44;;;12.62;100.00
51460;BME280;37534;39.772;2.718;2024-03-08T07:14:55;100413.00;;;12.60;100.00
51460;BME280;37534;39.772;2.718;2024-03-08T07:17:21;100419.84;;;12.61;100.00
51460;BME280;37534;39.772;2.718;2024-03-08T07:19:47;100416.50;;;12.59;100.00
51460;BME280;37534;39.772;2.718;2024-03-08T07:22:12;100416.63;;;12.56;100.00
51460;BME280;37534;39.772;2.718;2024-03-08T07:24:39;100429.88;;;12.70;100.00
51460;BME280;37534;39.772;2.718;2024-03-08T07:27:25;100420.94;;;12.55;100.00
51460;BME280;37534;39.772;2.718;2024-03-08T07:29:51;100447.00;;;12.73;100.00
51460;BME280;37534;39.772;2.718;2024-03-08T07:32:17;100458.50;;;12.88;100.00
51460;BME280;37534;39.772;2.718;2024-03-08T07:34:47;100448.16;;;12.88;100.00
51460;BME280;37534;39.772;2.718;2024-03-08T07:37:14;100444.06;;;12.60;100.00
51460;BME280;37534;39.772;2.718;2024-03-08T07:39:39;100444.28;;;12.32;100.00
51460;BME280;37534;39.772;2.718;2024-03-08T07:42:05;100456.47;;;12.28;100.00
51460;BME280;37534;39.772;2.718;2024-03-08T07:44:31;100476.09;;;12.10;100.00
51460;BME280;37534;39.772;2.718;2024-03-08T07:46:58;100443.47;;;11.81;100.00
51460;BME280;37534;39.772;2.718;2024-03-08T07:49:24;100477.84;;;12.10;100.00
51460;BME280;37534;39.772;2.718;2024-03-08T07:51:49;100473.13;;;12.21;100.00
51460;BME280;37534;39.772;2.718;2024-03-08T07:54:15;100479.06;;;12.00;100.00
51460;BME280;37534;39.772;2.718;2024-03-08T07:56:40;100469.91;;;11.89;100.00
51460;BME280;37534;39.772;2.718;2024-03-08T07:59:07;100478.22;;;11.99;100.00
51460;BME280;37534;39.772;2.718;2024-03-08T08:01:33;100453.63;;;11.87;100.00
51460;BME280;37534;39.772;2.718;2024-03-08T08:04:18;100460.69;;;11.82;100.00
51460;BME280;37534;39.772;2.718;2024-03-08T08:06:50;100451.19;;;11.83;100.00
51460;BME280;37534;39.772;2.718;2024-03-08T08:09:16;100443.50;;;12.06;100.00
51460;BME280;37534;39.772;2.718;2024-03-08T08:11:53;100469.13;;;12.12;100.00
51460;BME280;37534;39.772;2.718;2024-03-08T08:14:19;100458.78;;;11.87;100.00
51460;BME280;37534;39.772;2.718;2024-03-08T08:16:46;100493.00;;;11.95;100.00
51460;BME280;37534;39.772;2.718;2024-03-08T08:19:14;100484.16;;;11.76;100.00
51460;BME280;37534;39.772;2.718;2024-03-08T08:21:43;100497.03;;;12.03;100.00
51460;BME280;37534;39.772;2.718;2024-03-08T08:24:23;100459.13;;;12.27;100.00
51460;BME280;37534;39.772;2.718;2024-03-08T08:26:48;100473.09;;;12.45;100.00
51460;BME280;37534;39.772;2.718;2024-03-08T08:29:14;100482.56;;;12.46;100.00
51460;BME280;37534;39.772;2.718;2024-03-08T08:31:40;100478.97;;;12.50;100.00
51460;BME280;37534;39.772;2.718;2024-03-08T08:34:05;100468.03;;;12.42;100.00
51460;BME280;37534;39.772;2.718;2024-03-08T08:36:32;100479.41;;;12.38;100.00
51460;BME280;37534;39.772;2.718;2024-03-08T08:38:58;100467.53;;;12.55;100.00
51460;BME280;37534;39.772;2.718;2024-03-08T08:41:25;100476.28;;;12.75;100.00
51460;BME280;37534;39.772;2.718;2024-03-08T08:43:50;100484.75;;;12.79;100.00
51460;BME280;37534;39.772;2.718;2024-03-08T08:46:19;100480.84;;;12.90;100.00
51460;BME280;37534;39.772;2.718;2024-03-08T08:48:44;100483.34;;;12.93;98.25
51460;BME280;37534;39.772;2.718;2024-03-08T08:51:11;100478.50;;;13.06;100.00
51460;BME280;37534;39.772;2.718;2024-03-08T08:53:41;100515.84;;;13.23;97.79
51460;BME280;37534;39.772;2.718;2024-03-08T08:56:12;100485.16;;;13.34;95.25
51460;BME280;37534;39.772;2.718;2024-03-08T08:58:42;100493.31;;;13.47;98.43
51460;BME280;37534;39.772;2.718;2024-03-08T09:01:10;100494.34;;;13.84;100.00
51460;BME280;37534;39.772;2.718;2024-03-08T09:03:37;100486.69;;;14.20;100.00
51460;BME280;37534;39.772;2.718;2024-03-08T09:06:04;100496.00;;;15.00;100.00
51460;BME280;37534;39.772;2.718;2024-03-08T09:08:33;100504.50;;;15.58;99.10
51460;BME280;37534;39.772;2.718;2024-03-08T09:10:59;100505.94;;;15.64;98.46
51460;BME280;37534;39.772;2.718;2024-03-08T09:13:25;100495.56;;;15.97;94.45
51460;BME280;37534;39.772;2.718;2024-03-08T09:15:50;100497.38;;;16.78;79.49
51460;BME280;37534;39.772;2.718;2024-03-08T09:18:18;100489.13;;;17.76;78.15
51460;BME280;37534;39.772;2.718;2024-03-08T09:20:44;100488.09;;;19.19;69.99
51460;BME280;37534;39.772;2.718;2024-03-08T09:23:10;100491.84;;;20.32;58.91
51460;BME280;37534;39.772;2.718;2024-03-08T09:25:36;100486.56;;;21.42;51.88
51460;BME280;37534;39.772;2.718;2024-03-08T09:28:01;100485.91;;;21.27;46.52
51460;BME280;37534;39.772;2.718;2024-03-08T09:30:27;100481.88;;;21.70;46.09
51460;BME280;37534;39.772;2.718;2024-03-08T09:32:52;100467.78;;;22.50;44.64
51460;BME280;37534;39.772;2.718;2024-03-08T09:35:19;100485.59;;;22.46;46.26
51460;BME280;37534;39.772;2.718;2024-03-08T09:37:44;100510.63;;;23.80;42.18
51460;BME280;37534;39.772;2.718;2024-03-08T09:40:13;100486.16;;;25.19;37.64
51460;BME280;37534;39.772;2.718;2024-03-08T09:42:41;100508.38;;;24.77;36.24
51460;BME280;37534;39.772;2.718;2024-03-08T09:45:09;100492.56;;;25.36;36.87
51460;BME280;37534;39.772;2.718;2024-03-08T09:47:41;100500.81;;;25.80;35.41
51460;BME280;37534;39.772;2.718;2024-03-08T09:50:08;100500.25;;;26.24;35.04
51460;BME280;37534;39.772;2.718;2024-03-08T09:52:40;100509.38;;;26.57;34.90
51460;BME280;37534;39.772;2.718;2024-03-08T09:55:06;100511.53;;;27.69;33.09
51460;BME280;37534;39.772;2.718;2024-03-08T09:57:36;100505.28;;;26.45;33.58
51460;BME280;37534;39.772;2.718;2024-03-08T10:00:02;100512.59;;;27.15;32.59
51460;BME280;37534;39.772;2.718;2024-03-08T10:02:34;100505.03;;;27.20;33.20
51460;BME280;37534;39.772;2.718;2024-03-08T10:05:01;100510.72;;;27.07;31.53
51460;BME280;37534;39.772;2.718;2024-03-08T10:07:28;100504.66;;;26.97;32.07
51460;BME280;37534;39.772;2.718;2024-03-08T10:09:54;100503.78;;;27.06;31.84
51460;BME280;37534;39.772;2.718;2024-03-08T10:12:20;100508.53;;;27.91;30.63
51460;BME280;37534;39.772;2.718;2024-03-08T10:14:45;100517.63;;;28.22;29.47
51460;BME280;37534;39.772;2.718;2024-03-08T10:17:12;100506.91;;;28.91;29.51
51460;BME280;37534;39.772;2.718;2024-03-08T10:19:38;100506.66;;;27.57;29.14
51460;BME280;37534;39.772;2.718;2024-03-08T10:22:04;100505.03;;;27.64;30.93
51460;BME280;37534;39.772;2.718;2024-03-08T10:24:30;100529.75;;;25.82;30.58
51460;BME280;37534;39.772;2.718;2024-03-08T10:26:59;100502.16;;;24.88;30.44
51460;BME280;37534;39.772;2.718;2024-03-08T10:29:26;100508.00;;;24.41;30.89
51460;BME280;37534;39.772;2.718;2024-03-08T10:31:51;100497.59;;;24.40;31.79
51460;BME280;37534;39.772;2.718;2024-03-08T10:34:17;100493.91;;;25.59;31.10
51460;BME280;37534;39.772;2.718;2024-03-08T10:36:44;100498.03;;;25.25;30.10
51460;BME280;37534;39.772;2.718;2024-03-08T10:39:22;100500.88;;;26.35;30.30
51460;BME280;37534;39.772;2.718;2024-03-08T10:41:52;100496.66;;;27.77;28.90
51460;BME280;37534;39.772;2.718;2024-03-08T10:44:40;100500.31;;;27.49;27.72
51460;BME280;37534;39.772;2.718;2024-03-08T10:49:38;100503.69;;;26.80;27.61
51460;BME280;37534;39.772;2.718;2024-03-08T10:52:09;100504.19;;;25.53;29.15
51460;BME280;37534;39.772;2.718;2024-03-08T10:54:37;100503.16;;;25.83;29.02
51460;BME280;37534;39.772;2.718;2024-03-08T10:57:06;100502.44;;;26.28;27.87
51460;BME280;37534;39.772;2.718;2024-03-08T10:59:34;100474.44;;;27.69;27.00
51460;BME280;37534;39.772;2.718;2024-03-08T11:02:00;100477.13;;;27.25;27.22
51460;BME280;37534;39.772;2.718;2024-03-08T11:04:26;100486.28;;;27.31;26.54
51460;BME280;37534;39.772;2.718;2024-03-08T11:07:00;100489.00;;;27.92;26.04
51460;BME280;37534;39.772;2.718;2024-03-08T11:09:32;100472.94;;;27.67;26.82
51460;BME280;37534;39.772;2.718;2024-03-08T11:12:24;100484.59;;;28.09;27.21
51460;BME280;37534;39.772;2.718;2024-03-08T11:14:54;100444.50;;;28.79;26.19
51460;BME280;37534;39.772;2.718;2024-03-08T11:19:59;100475.53;;;29.28;25.46
51460;BME280;37534;39.772;2.718;2024-03-08T11:22:32;100471.47;;;29.81;25.95
51460;BME280;37534;39.772;2.718;2024-03-08T11:25:05;100477.47;;;29.75;26.61
51460;BME280;37534;39.772;2.718;2024-03-08T11:27:37;100472.38;;;28.91;27.17
51460;BME280;37534;39.772;2.718;2024-03-08T11:30:07;100469.38;;;29.11;27.92
51460;BME280;37534;39.772;2.718;2024-03-08T11:32:41;100480.03;;;29.35;27.56
51460;BME280;37534;39.772;2.718;2024-03-08T11:35:18;100488.56;;;27.78;28.23
51460;BME280;37534;39.772;2.718;2024-03-08T11:37:44;100480.75;;;27.77;26.35
51460;BME280;37534;39.772;2.718;2024-03-08T11:40:14;100505.19;;;28.57;27.61
51460;BME280;37534;39.772;2.718;2024-03-08T11:42:48;100509.22;;;27.04;28.35
51460;BME280;37534;39.772;2.718;2024-03-08T11:45:18;100517.00;;;28.29;28.83
51460;BME280;37534;39.772;2.718;2024-03-08T11:47:46;100524.38;;;28.51;27.32
51460;BME280;37534;39.772;2.718;2024-03-08T11:50:13;100515.22;;;28.37;27.34
51460;BME280;37534;39.772;2.718;2024-03-08T11:52:39;100502.75;;;28.30;28.64
51460;BME280;37534;39.772;2.718;2024-03-08T11:55:05;100506.56;;;29.02;27.68
51460;BME280;37534;39.772;2.718;2024-03-08T11:57:31;100505.19;;;27.88;26.98
51460;BME280;37534;39.772;2.718;2024-03-08T11:59:57;100529.88;;;26.83;27.69
51460;BME280;37534;39.772;2.718;2024-03-08T12:02:26;100507.53;;;27.03;27.93
51460;BME280;37534;39.772;2.718;2024-03-08T12:04:57;100516.59;;;26.37;27.37
51460;BME280;37534;39.772;2.718;2024-03-08T12:07:23;100483.06;;;26.65;27.72
51460;BME280;37534;39.772;2.718;2024-03-08T12:10:20;100523.00;;;26.34;27.50
51460;BME280;37534;39.772;2.718;2024-03-08T12:12:52;100523.09;;;25.68;28.42
51460;BME280;37534;39.772;2.718;2024-03-08T12:15:19;100505.72;;;26.12;27.12
51460;BME280;37534;39.772;2.718;2024-03-08T12:17:48;100484.91;;;24.74;29.03
51460;BME280;37534;39.772;2.718;2024-03-08T12:20:18;100494.72;;;25.70;28.53
51460;BME280;37534;39.772;2.718;2024-03-08T12:22:47;100486.13;;;27.59;26.89
51460;BME280;37534;39.772;2.718;2024-03-08T12:25:14;100477.56;;;27.65;27.12
51460;BME280;37534;39.772;2.718;2024-03-08T12:27:42;100477.41;;;29.19;25.65
51460;BME280;37534;39.772;2.718;2024-03-08T12:30:25;100475.78;;;28.51;25.47
51460;BME280;37534;39.772;2.718;2024-03-08T12:32:59;100475.19;;;28.81;25.50
51460;BME280;37534;39.772;2.718;2024-03-08T12:35:29;100456.50;;;29.72;25.25
51460;BME280;37534;39.772;2.718;2024-03-08T12:37:56;100466.81;;;30.14;23.91
51460;BME280;37534;39.772;2.718;2024-03-08T12:40:32;100450.97;;;28.93;24.60
51460;BME280;37534;39.772;2.718;2024-03-08T12:43:00;100456.44;;;29.41;25.89
51460;BME280;37534;39.772;2.718;2024-03-08T12:45:26;100431.03;;;29.13;23.65
51460;BME280;37534;39.772;2.718;2024-03-08T12:47:55;100444.56;;;29.68;25.74
51460;BME280;37534;39.772;2.718;2024-03-08T12:50:24;100425.81;;;30.32;24.92